createdAt,value
2018-05-23T00:01:38.824Z,95300.25
2018-05-23T00:04:07.388Z,95300.94
2018-05-23T00:06:35.951Z,95298.56
2018-05-23T00:09:03.621Z,95308.13
2018-05-23T00:11:32.180Z,95305.33
2018-05-23T00:14:00.750Z,95299.66
2018-05-23T00:16:29.310Z,95303.52
2018-05-23T00:18:57.878Z,95303.41
2018-05-23T00:21:26.460Z,95307.09
2018-05-23T00:23:55.029Z,95308.28
2018-05-23T00:26:23.607Z,95308.34
2018-05-23T00:28:52.172Z,95305.30
2018-05-23T00:31:20.749Z,95311.45
2018-05-23T00:33:49.308Z,95304.89
2018-05-23T00:36:17.879Z,95311.63
2018-05-23T00:38:46.452Z,95314.94
2018-05-23T00:41:15.026Z,95310.27
2018-05-23T00:43:43.592Z,95300.30
2018-05-23T00:46:12.151Z,95299.52
2018-05-23T00:48:40.720Z,95299.16
2018-05-23T00:51:09.299Z,95299.56
2018-05-23T00:53:37.875Z,95301.62
2018-05-23T00:56:06.439Z,95306.13
2018-05-23T00:58:35.025Z,95306.98
2018-05-23T01:01:03.592Z,95309.15
2018-05-23T01:03:32.163Z,95311.39
2018-05-23T01:06:00.725Z,95310.17
2018-05-23T01:08:29.287Z,95300.38
2018-05-23T01:10:57.845Z,95306.67
2018-05-23T01:13:26.478Z,95305.69
2018-05-23T01:15:55.052Z,95297.64
2018-05-23T01:18:23.658Z,95298.70
2018-05-23T01:20:52.419Z,95294.80
2018-05-23T01:23:20.988Z,95295.07
2018-05-23T01:25:49.569Z,95296.83
2018-05-23T01:28:18.136Z,95297.08
2018-05-23T01:30:46.743Z,95293.25
2018-05-23T01:33:15.389Z,95296.27
2018-05-23T01:35:44.087Z,95294.18
2018-05-23T01:38:12.651Z,95292.52
2018-05-23T01:40:41.214Z,95296.78
2018-05-23T01:43:09.782Z,95291.74
2018-05-23T01:45:38.343Z,95287.76
2018-05-23T01:48:06.908Z,95290.22
2018-05-23T01:50:35.486Z,95288.45
2018-05-23T01:53:04.082Z,95288.89
2018-05-23T01:55:32.640Z,95285.91
2018-05-23T01:58:01.195Z,95289.77
2018-05-23T02:00:29.808Z,95292.28
2018-05-23T02:02:58.423Z,95288.05
2018-05-23T02:05:27.183Z,95288.62
2018-05-23T02:07:55.767Z,95285.97
2018-05-23T02:10:24.355Z,95292.00
2018-05-23T02:12:52.980Z,95291.78
2018-05-23T02:15:21.547Z,95296.09
2018-05-23T02:17:50.121Z,95296.58
2018-05-23T02:20:18.695Z,95295.23
2018-05-23T02:22:47.271Z,95292.72
2018-05-23T02:25:15.851Z,95294.34
2018-05-23T02:27:44.515Z,95288.02
2018-05-23T02:30:13.131Z,95285.76
2018-05-23T02:32:42.016Z,95288.24
2018-05-23T02:35:10.591Z,95286.82
2018-05-23T02:37:39.170Z,95284.58
2018-05-23T02:40:07.940Z,95288.87
2018-05-23T02:42:36.515Z,95286.92
2018-05-23T02:45:05.189Z,95284.96
2018-05-23T02:47:33.745Z,95285.72
2018-05-23T02:50:02.330Z,95283.36
2018-05-23T02:52:30.927Z,95284.88
2018-05-23T02:54:59.488Z,95276.67
2018-05-23T02:57:28.053Z,95275.42
2018-05-23T02:59:56.631Z,95280.40
2018-05-23T03:02:25.209Z,95278.51
2018-05-23T03:04:53.849Z,95275.44
2018-05-23T03:07:22.416Z,95282.05
2018-05-23T03:09:51.029Z,95278.05
2018-05-23T03:12:19.593Z,95284.96
2018-05-23T03:14:48.195Z,95288.84
2018-05-23T03:17:17.051Z,95287.76
2018-05-23T03:19:45.664Z,95286.53
2018-05-23T03:22:14.272Z,95290.29
2018-05-23T03:24:42.856Z,95292.91
2018-05-23T03:27:11.438Z,95293.81
2018-05-23T03:29:40.007Z,95292.16
2018-05-23T03:32:08.584Z,95300.15
2018-05-23T03:34:37.196Z,95309.65
2018-05-23T03:37:05.754Z,95308.30
2018-05-23T03:39:34.371Z,95308.97
2018-05-23T03:42:02.979Z,95309.53
2018-05-23T03:44:31.225Z,95313.61
2018-05-23T03:46:59.793Z,95319.08
2018-05-23T03:49:28.391Z,95319.49
2018-05-23T03:51:57.018Z,95329.31
2018-05-23T03:54:25.583Z,95325.27
2018-05-23T03:56:54.209Z,95330.98
2018-05-23T03:59:33.892Z,95331.67
2018-05-23T04:02:13.544Z,95333.79
2018-05-23T04:07:48.277Z,95340.48
2018-05-23T04:10:16.847Z,95337.51
2018-05-23T04:12:45.430Z,95336.34
2018-05-23T04:15:14.007Z,95341.25
2018-05-23T04:17:42.580Z,95343.34
2018-05-23T04:20:11.163Z,95341.80
2018-05-23T04:22:39.764Z,95340.22
2018-05-23T04:25:08.349Z,95341.40
2018-05-23T04:27:36.916Z,95340.47
2018-05-23T04:30:06.916Z,95342.23
2018-05-23T04:32:35.484Z,95335.91
2018-05-23T04:35:04.058Z,95334.86
2018-05-23T04:37:32.631Z,95334.63
2018-05-23T04:40:01.206Z,95334.38
2018-05-23T04:42:29.813Z,95333.80
2018-05-23T04:44:58.417Z,95337.28
2018-05-23T04:47:26.996Z,95333.19
2018-05-23T04:49:55.580Z,95327.47
2018-05-23T04:52:24.158Z,95328.13
2018-05-23T04:54:52.720Z,95328.09
2018-05-23T04:57:21.278Z,95325.75
2018-05-23T04:59:49.875Z,95330.45
2018-05-23T05:02:18.628Z,95331.88
2018-05-23T05:04:47.207Z,95329.75
2018-05-23T05:07:16.000Z,95336.14
2018-05-23T05:09:44.576Z,95335.52
2018-05-23T05:12:13.137Z,95331.34
2018-05-23T05:14:41.717Z,95336.31
2018-05-23T05:17:10.289Z,95329.09
2018-05-23T05:19:38.862Z,95330.98
2018-05-23T05:22:07.423Z,95329.44
2018-05-23T05:24:35.996Z,95336.58
2018-05-23T05:27:04.559Z,95338.68
2018-05-23T05:29:33.127Z,95337.84
2018-05-23T05:32:01.691Z,95338.19
2018-05-23T05:34:30.267Z,95337.88
2018-05-23T05:36:58.861Z,95331.56
2018-05-23T05:39:27.432Z,95342.77
2018-05-23T05:41:56.002Z,95340.88
2018-05-23T05:44:24.585Z,95345.25
2018-05-23T05:46:53.245Z,95348.89
2018-05-23T05:49:21.930Z,95349.70
2018-05-23T05:51:50.515Z,95349.84
2018-05-23T05:54:19.095Z,95351.39
2018-05-23T05:56:47.680Z,95360.59
2018-05-23T05:59:16.314Z,95355.73
2018-05-23T06:01:45.041Z,95358.51
2018-05-23T06:04:13.625Z,95363.96
2018-05-23T06:06:42.199Z,95356.13
2018-05-23T06:09:10.802Z,95358.55
2018-05-23T06:11:39.412Z,95355.17
2018-05-23T06:14:07.991Z,95359.47
2018-05-23T06:16:36.577Z,95361.48
2018-05-23T06:19:05.159Z,95358.81
2018-05-23T06:21:33.723Z,95363.26
2018-05-23T06:24:02.336Z,95360.98
2018-05-23T06:26:30.921Z,95360.50
2018-05-23T06:28:59.521Z,95356.52
2018-05-23T06:31:28.099Z,95362.45
2018-05-23T06:33:56.672Z,95360.59
2018-05-23T06:36:25.263Z,95358.02
2018-05-23T06:38:53.836Z,95362.72
2018-05-23T06:41:22.427Z,95350.95
2018-05-23T06:43:50.749Z,95351.97
2018-05-23T06:46:19.904Z,95352.02
2018-05-23T06:48:50.862Z,95345.86
2018-05-23T06:51:19.475Z,95344.38
2018-05-23T06:53:48.050Z,95343.08
2018-05-23T06:56:16.620Z,95341.08
2018-05-23T06:58:45.201Z,95346.75
2018-05-23T07:01:13.782Z,95344.38
2018-05-23T07:03:42.378Z,95339.20
2018-05-23T07:06:10.948Z,95335.02
2018-05-23T07:08:39.507Z,95334.95
2018-05-23T07:11:08.083Z,95334.91
2018-05-23T07:13:36.655Z,95335.34
2018-05-23T07:16:05.226Z,95333.41
2018-05-23T07:18:33.802Z,95332.12
2018-05-23T07:21:02.393Z,95330.33
2018-05-23T07:23:30.963Z,95338.94
2018-05-23T07:26:00.558Z,95330.84
2018-05-23T07:28:29.275Z,95328.81
2018-05-23T07:30:57.864Z,95326.47
2018-05-23T07:33:26.481Z,95331.23
2018-05-23T07:35:55.106Z,95323.97
2018-05-23T07:38:23.821Z,95315.45
2018-05-23T07:40:52.656Z,95317.46
2018-05-23T07:43:21.221Z,95310.39
2018-05-23T07:45:49.861Z,95311.52
2018-05-23T07:48:18.602Z,95310.98
2018-05-23T07:50:47.203Z,95309.58
2018-05-23T07:53:15.809Z,95301.80
2018-05-23T07:55:44.415Z,95308.44
2018-05-23T07:58:13.312Z,95307.97
2018-05-23T08:00:41.923Z,95308.50
2018-05-23T08:03:10.563Z,95306.06
2018-05-23T08:05:39.135Z,95307.59
2018-05-23T08:08:07.700Z,95306.17
2018-05-23T08:10:36.268Z,95298.50
2018-05-23T08:13:04.831Z,95301.15
2018-05-23T08:15:33.439Z,95303.56
2018-05-23T08:18:02.011Z,95304.19
2018-05-23T08:20:30.731Z,95300.85
2018-05-23T08:22:59.322Z,95299.93
2018-05-23T08:25:28.000Z,95299.40
2018-05-23T08:27:56.663Z,95300.77
2018-05-23T08:30:26.397Z,95297.30
2018-05-23T08:32:55.024Z,95300.66
2018-05-23T08:35:23.612Z,95295.19
2018-05-23T08:37:53.480Z,95295.20
2018-05-23T08:40:22.166Z,95294.12
2018-05-23T08:42:50.966Z,95295.24
2018-05-23T08:45:19.635Z,95292.95
2018-05-23T08:47:48.406Z,95292.65
2018-05-23T08:50:16.633Z,95293.67
2018-05-23T08:52:45.256Z,95291.53
2018-05-23T08:55:14.918Z,95284.03
2018-05-23T08:57:43.525Z,95283.73
2018-05-23T09:00:12.132Z,95279.81
2018-05-23T09:02:40.704Z,95272.48
2018-05-23T09:05:09.277Z,95274.76
2018-05-23T09:07:37.902Z,95279.88
2018-05-23T09:10:06.523Z,95271.91
2018-05-23T09:12:35.200Z,95266.33
2018-05-23T09:15:03.850Z,95267.04
2018-05-23T09:17:32.420Z,95267.17
2018-05-23T09:20:00.979Z,95266.01
2018-05-23T09:22:29.596Z,95267.30
2018-05-23T09:24:58.170Z,95260.39
2018-05-23T09:27:26.739Z,95258.86
2018-05-23T09:29:55.324Z,95247.64
2018-05-23T09:32:23.905Z,95248.23
2018-05-23T09:34:52.480Z,95249.38
2018-05-23T09:37:21.064Z,95247.00
2018-05-23T09:39:49.888Z,95247.18
2018-05-23T09:42:18.458Z,95239.75
2018-05-23T09:44:47.120Z,95237.66
2018-05-23T09:47:15.735Z,95237.44
2018-05-23T09:49:44.294Z,95228.48
2018-05-23T09:52:12.978Z,95230.82
2018-05-23T09:54:41.624Z,95227.45
2018-05-23T09:57:10.188Z,95223.39
2018-05-23T09:59:38.761Z,95226.84
2018-05-23T10:02:07.357Z,95223.14
2018-05-23T10:04:35.983Z,95220.08
2018-05-23T10:07:04.569Z,95214.33
2018-05-23T10:09:33.139Z,95213.09
2018-05-23T10:12:01.692Z,95215.86
2018-05-23T10:14:30.251Z,95208.47
2018-05-23T10:16:58.832Z,95208.34
2018-05-23T10:19:27.402Z,95205.59
2018-05-23T10:21:55.969Z,95193.86
2018-05-23T10:24:24.547Z,95193.90
2018-05-23T10:26:53.138Z,95190.38
2018-05-23T10:29:21.348Z,95193.27
2018-05-23T10:31:49.900Z,95183.73
2018-05-23T10:34:18.472Z,95181.20
2018-05-23T10:36:47.191Z,95181.85
2018-05-23T10:39:15.953Z,95178.51
2018-05-23T10:41:44.526Z,95169.00
2018-05-23T10:44:13.136Z,95171.13
2018-05-23T10:46:41.707Z,95166.69
2018-05-23T10:49:10.276Z,95165.88
2018-05-23T10:51:38.846Z,95151.73
2018-05-23T10:54:07.428Z,95154.75
2018-05-23T10:56:36.007Z,95147.45
2018-05-23T10:59:04.597Z,95146.61
2018-05-23T11:01:33.176Z,95148.41
2018-05-23T11:04:01.750Z,95141.58
2018-05-23T11:06:30.316Z,95135.08
2018-05-23T11:08:58.956Z,95130.97
2018-05-23T11:11:27.677Z,95142.70
2018-05-23T11:13:56.235Z,95142.16
2018-05-23T11:16:24.814Z,95138.44
2018-05-23T11:18:53.385Z,95133.39
2018-05-23T11:21:21.947Z,95125.76
2018-05-23T11:23:50.505Z,95122.13
2018-05-23T11:26:19.078Z,95119.40
2018-05-23T11:28:47.638Z,95111.59
2018-05-23T11:31:16.236Z,95106.41
2018-05-23T11:33:45.098Z,95106.43
2018-05-23T11:36:13.656Z,95099.94
2018-05-23T11:38:42.207Z,95095.83
2018-05-23T11:41:10.804Z,95105.44
2018-05-23T11:43:39.370Z,95086.59
2018-05-23T11:46:07.929Z,95097.58
2018-05-23T11:48:36.491Z,95094.50
2018-05-23T11:51:05.050Z,95090.07
2018-05-23T11:53:33.660Z,95081.69
2018-05-23T11:56:02.276Z,95081.55
2018-05-23T11:58:30.864Z,95074.05
2018-05-23T12:01:00.283Z,95074.03
2018-05-23T12:03:28.845Z,95071.77
2018-05-23T12:05:57.451Z,95065.32
2018-05-23T12:08:26.060Z,95071.25
2018-05-23T12:10:54.618Z,95065.91
2018-05-23T12:13:23.190Z,95062.02
2018-05-23T12:15:51.747Z,95059.84
2018-05-23T12:18:20.319Z,95052.34
2018-05-23T12:20:49.884Z,95044.48
2018-05-23T12:23:18.447Z,95049.23
2018-05-23T12:25:47.029Z,95048.91
2018-05-23T12:28:15.578Z,95038.81
2018-05-23T12:30:44.132Z,95030.80
2018-05-23T12:33:12.754Z,95028.94
2018-05-23T12:35:41.499Z,95028.26
2018-05-23T12:38:10.059Z,95030.77
2018-05-23T12:40:38.671Z,95020.52
2018-05-23T12:43:07.282Z,95020.36
2018-05-23T12:45:35.848Z,95018.80
2018-05-23T12:48:04.434Z,95024.92
2018-05-23T12:50:33.075Z,95016.95
2018-05-23T12:53:01.635Z,95023.73
2018-05-23T12:55:30.192Z,95022.58
2018-05-23T12:57:58.764Z,95020.72
2018-05-23T13:00:27.357Z,95019.41
2018-05-23T13:02:57.271Z,95011.22
2018-05-23T13:05:25.906Z,95008.53
2018-05-23T13:07:54.481Z,95012.91
2018-05-23T13:10:23.061Z,95019.88
2018-05-23T13:12:51.628Z,95018.55
2018-05-23T13:15:24.500Z,95008.31
2018-05-23T13:17:54.362Z,95008.31
2018-05-23T13:20:23.104Z,95005.85
2018-05-23T13:22:55.724Z,95009.88
2018-05-23T13:25:26.417Z,95001.02
2018-05-23T13:27:57.652Z,94995.78
2018-05-23T13:30:26.345Z,95000.30
2018-05-23T13:32:55.015Z,94995.34
2018-05-23T13:35:23.575Z,94996.16
2018-05-23T13:37:52.156Z,94998.14
2018-05-23T13:40:20.750Z,95010.92
2018-05-23T13:42:49.307Z,94996.84
2018-05-23T13:45:17.875Z,95002.95
2018-05-23T13:47:46.444Z,94998.53
2018-05-23T13:50:15.016Z,94997.67
2018-05-23T13:52:43.571Z,94996.91
2018-05-23T13:55:12.213Z,95000.05
2018-05-23T13:57:40.933Z,94999.89
2018-05-23T14:00:09.563Z,95006.95
2018-05-23T14:02:38.147Z,95012.69
2018-05-23T14:05:06.749Z,95013.23
2018-05-23T14:07:35.092Z,95004.93
2018-05-23T14:10:03.357Z,95011.31
2018-05-23T14:12:31.978Z,95007.56
2018-05-23T14:15:00.551Z,95009.08
2018-05-23T14:17:29.115Z,95010.20
2018-05-23T14:19:57.675Z,95006.14
2018-05-23T14:22:26.275Z,95005.98
2018-05-23T14:24:54.837Z,95006.42
2018-05-23T14:27:23.423Z,95002.38
2018-05-23T14:29:52.001Z,94998.66
2018-05-23T14:32:20.574Z,94995.05
2018-05-23T14:34:49.228Z,94992.11
2018-05-23T14:37:17.791Z,94996.16
2018-05-23T14:39:46.354Z,95002.19
2018-05-23T14:42:14.935Z,95014.50
2018-05-23T14:44:43.547Z,95016.30
2018-05-23T14:47:12.111Z,95015.78
2018-05-23T14:49:40.691Z,95011.92
2018-05-23T14:52:09.303Z,95027.20
2018-05-23T14:54:37.894Z,95032.14
2018-05-23T14:57:06.526Z,95025.72
2018-05-23T14:59:35.090Z,95026.00
2018-05-23T15:02:03.298Z,95031.08
2018-05-23T15:04:31.869Z,95030.14
2018-05-23T15:07:00.443Z,95035.34
2018-05-23T15:09:29.022Z,95033.59
2018-05-23T15:11:57.571Z,95035.61
2018-05-23T15:14:26.249Z,95032.79
2018-05-23T15:16:54.943Z,95042.16
2018-05-23T15:19:23.499Z,95043.20
2018-05-23T15:21:52.053Z,95045.48
2018-05-23T15:24:20.606Z,95035.18
2018-05-23T15:26:49.179Z,95044.63
2018-05-23T15:29:18.389Z,95036.50
2018-05-23T15:31:47.016Z,95046.00
2018-05-23T15:34:15.579Z,95042.26
2018-05-23T15:36:44.167Z,95037.30
2018-05-23T15:39:12.768Z,95030.32
2018-05-23T15:41:41.347Z,95030.23
2018-05-23T15:44:10.114Z,95031.70
2018-05-23T15:46:38.692Z,95038.77
2018-05-23T15:49:07.275Z,95037.68
2018-05-23T15:51:35.748Z,95037.25
2018-05-23T15:54:04.307Z,95036.17
2018-05-23T15:56:32.955Z,95035.78
2018-05-23T15:59:01.530Z,95040.27
2018-05-23T16:01:30.195Z,95037.05
2018-05-23T16:03:58.813Z,95028.12
2018-05-23T16:06:27.373Z,95031.59
2018-05-23T16:08:55.931Z,95038.14
2018-05-23T16:11:24.537Z,95037.19
2018-05-23T16:13:53.920Z,95037.06
2018-05-23T16:16:22.567Z,95038.16
2018-05-23T16:18:51.134Z,95032.27
2018-05-23T16:21:19.695Z,95042.94
2018-05-23T16:23:48.246Z,95043.62
2018-05-23T16:26:16.479Z,95045.86
2018-05-23T16:28:45.078Z,95044.54
2018-05-23T16:31:13.999Z,95044.39
2018-05-23T16:33:42.575Z,95043.19
2018-05-23T16:36:11.151Z,95036.52
2018-05-23T16:38:39.709Z,95041.17
2018-05-23T16:41:08.314Z,95038.11
2018-05-23T16:43:36.873Z,95037.95
2018-05-23T16:46:05.108Z,95036.19
2018-05-23T16:48:33.687Z,95040.98
2018-05-23T16:51:02.834Z,95039.80
2018-05-23T16:53:31.412Z,95036.86
2018-05-23T16:55:59.964Z,95034.04
2018-05-23T16:58:28.555Z,95029.22
2018-05-23T17:00:57.112Z,95031.36
2018-05-23T17:03:26.182Z,95021.32
2018-05-23T17:05:54.735Z,95021.84
2018-05-23T17:08:23.340Z,95023.45
2018-05-23T17:10:51.934Z,95020.11
2018-05-23T17:13:20.496Z,95011.95
2018-05-23T17:15:49.076Z,95004.83
2018-05-23T17:18:17.647Z,95006.64
2018-05-23T17:20:46.223Z,94994.88
2018-05-23T17:23:14.843Z,94994.36
2018-05-23T17:25:43.421Z,94983.39
2018-05-23T17:28:12.017Z,94983.55
2018-05-23T17:30:40.584Z,94980.22
2018-05-23T17:33:09.152Z,94978.72
2018-05-23T17:35:37.711Z,94970.52
2018-05-23T17:38:06.297Z,94969.31
2018-05-23T17:40:34.947Z,94962.36
2018-05-23T17:43:03.507Z,94961.30
2018-05-23T17:45:32.119Z,94961.58
2018-05-23T17:48:00.677Z,94962.13
2018-05-23T17:50:29.287Z,94952.93
2018-05-23T17:52:57.847Z,94946.22
2018-05-23T17:55:26.441Z,94946.84
2018-05-23T17:57:55.026Z,94939.78
2018-05-23T18:00:23.602Z,94934.83
2018-05-23T18:02:52.155Z,94932.66
2018-05-23T18:05:20.722Z,94929.30
2018-05-23T18:07:49.267Z,94929.67
2018-05-23T18:10:17.834Z,94925.13
2018-05-23T18:12:46.402Z,94928.75
2018-05-23T18:15:14.970Z,94932.22
2018-05-23T18:17:43.609Z,94933.67
2018-05-23T18:20:12.299Z,94934.22
2018-05-23T18:22:40.879Z,94935.03
2018-05-23T18:25:09.432Z,94936.59
2018-05-23T18:27:38.071Z,94939.13
2018-05-23T18:30:06.681Z,94936.23
2018-05-23T18:32:35.234Z,94935.44
2018-05-23T18:35:03.828Z,94933.80
2018-05-23T18:37:32.396Z,94935.11
2018-05-23T18:40:00.989Z,94942.42
2018-05-23T18:42:29.564Z,94939.88
2018-05-23T18:44:58.120Z,94942.02
2018-05-23T18:47:26.692Z,94942.14
2018-05-23T18:49:55.243Z,94952.22
2018-05-23T18:52:23.853Z,94948.97
2018-05-23T18:54:53.295Z,94955.09
2018-05-23T18:57:21.910Z,94959.89
2018-05-23T18:59:52.832Z,94963.45
2018-05-23T19:02:21.407Z,94959.72
2018-05-23T19:04:49.990Z,94970.70
2018-05-23T19:07:18.386Z,94965.72
2018-05-23T19:09:47.087Z,94971.75
2018-05-23T19:12:15.708Z,94975.67
2018-05-23T19:14:44.488Z,94983.59
2018-05-23T19:17:13.419Z,94992.13
2018-05-23T19:19:42.047Z,94998.25
2018-05-23T19:22:10.756Z,95002.59
2018-05-23T19:24:39.497Z,95006.09
2018-05-23T19:27:08.083Z,95012.59
2018-05-23T19:29:37.532Z,95014.41
2018-05-23T19:32:06.106Z,95020.74
2018-05-23T19:34:34.895Z,95022.31
2018-05-23T19:37:03.497Z,95029.26
2018-05-23T19:39:32.081Z,95030.75
2018-05-23T19:42:00.699Z,95021.00
2018-05-23T19:44:29.271Z,95023.50
2018-05-23T19:46:58.706Z,95027.22
2018-05-23T19:49:26.974Z,95021.97
2018-05-23T19:51:55.578Z,95022.53
2018-05-23T19:54:24.198Z,95030.43
2018-05-23T19:56:52.754Z,95030.71
2018-05-23T19:59:22.124Z,95033.66
2018-05-23T20:01:50.690Z,95031.03
2018-05-23T20:04:19.272Z,95024.66
2018-05-23T20:06:47.868Z,95025.71
2018-05-23T20:09:16.431Z,95029.94
2018-05-23T20:11:44.996Z,95035.17
2018-05-23T20:14:13.663Z,95033.69
2018-05-23T20:16:42.360Z,95030.63
2018-05-23T20:19:10.923Z,95030.14
2018-05-23T20:21:39.484Z,95038.10
2018-05-23T20:24:08.044Z,95035.98
2018-05-23T20:26:36.627Z,95038.39
2018-05-23T20:29:05.187Z,95044.23
2018-05-23T20:31:34.730Z,95049.67
2018-05-23T20:34:03.322Z,95051.56
2018-05-23T20:36:31.878Z,95051.28
2018-05-23T20:39:00.444Z,95047.12
2018-05-23T20:41:29.043Z,95050.34
2018-05-23T20:43:57.615Z,95050.09
2018-05-23T20:46:26.170Z,95048.95
2018-05-23T20:48:54.732Z,95045.53
2018-05-23T20:51:23.336Z,95056.00
2018-05-23T20:53:51.890Z,95054.27
2018-05-23T20:56:20.500Z,95046.98
2018-05-23T20:58:49.136Z,95048.22
2018-05-23T21:01:17.886Z,95042.62
2018-05-23T21:03:46.489Z,95045.55
2018-05-23T21:06:15.261Z,95045.80
2018-05-23T21:08:43.822Z,95050.38
2018-05-23T21:11:12.421Z,95044.09
2018-05-23T21:13:41.020Z,95048.64
2018-05-23T21:16:09.612Z,95046.73
2018-05-23T21:18:38.180Z,95048.30
2018-05-23T21:21:06.805Z,95047.83
2018-05-23T21:23:35.377Z,95049.27
2018-05-23T21:26:04.787Z,95046.16
2018-05-23T21:28:33.343Z,95044.14
2018-05-23T21:31:01.967Z,95040.72
2018-05-23T21:33:30.536Z,95044.12
2018-05-23T21:35:59.123Z,95041.03
2018-05-23T21:38:27.687Z,95043.47
2018-05-23T21:40:55.947Z,95039.97
2018-05-23T21:43:24.516Z,95037.44
2018-05-23T21:45:53.094Z,95033.70
2018-05-23T21:48:21.684Z,95032.34
2018-05-23T21:51:02.204Z,95031.69
2018-05-23T21:53:30.782Z,95020.77
2018-05-23T21:55:59.342Z,95020.37
2018-05-23T21:58:27.919Z,95019.36
2018-05-23T22:00:56.486Z,95021.98
2018-05-23T22:03:25.042Z,95019.23
2018-05-23T22:05:53.604Z,95024.64
2018-05-23T22:08:22.183Z,95026.75
2018-05-23T22:10:50.745Z,95030.01
2018-05-23T22:13:19.303Z,95034.55
2018-05-23T22:18:21.820Z,95032.65
2018-05-23T22:20:50.517Z,95043.73
2018-05-23T22:23:19.078Z,95045.80
2018-05-23T22:25:47.666Z,95045.75
2018-05-23T22:28:16.209Z,95038.51
2018-05-23T22:30:44.826Z,95035.97
2018-05-23T22:33:13.510Z,95041.97
2018-05-23T22:35:42.062Z,95034.03
2018-05-23T22:38:10.632Z,95028.92
2018-05-23T22:40:39.181Z,95022.22
2018-05-23T22:43:07.741Z,95019.30
2018-05-23T22:45:36.305Z,95020.95
2018-05-23T22:48:04.868Z,95022.25
2018-05-23T22:50:33.427Z,95021.09
2018-05-23T22:53:01.981Z,95020.48
2018-05-23T22:55:30.568Z,95016.21
2018-05-23T22:57:59.132Z,95013.64
2018-05-23T23:00:27.003Z,95016.45
2018-05-23T23:02:55.584Z,95014.32
2018-05-23T23:05:24.152Z,95015.81
2018-05-23T23:07:52.713Z,95006.99
2018-05-23T23:10:21.297Z,95015.45
2018-05-23T23:12:49.857Z,95009.56
2018-05-23T23:15:18.423Z,95012.22
2018-05-23T23:17:46.979Z,95010.17
2018-05-23T23:20:15.530Z,95015.05
2018-05-23T23:22:44.097Z,95004.16
2018-05-23T23:25:12.668Z,95003.83
2018-05-23T23:27:41.310Z,95011.70
2018-05-23T23:30:10.107Z,95008.70
2018-05-23T23:32:38.680Z,95013.72
2018-05-23T23:35:07.253Z,95009.45
2018-05-23T23:37:35.875Z,95005.02
2018-05-23T23:40:04.108Z,95002.64
2018-05-23T23:42:32.684Z,94998.55
2018-05-23T23:45:01.256Z,94995.77
2018-05-23T23:47:29.822Z,94993.34
2018-05-23T23:49:58.158Z,94987.52
2018-05-23T23:52:26.743Z,94986.88
2018-05-23T23:54:55.302Z,94990.17
2018-05-23T23:57:23.875Z,94986.70
2018-05-23T23:59:52.431Z,94991.05
